createdAt,value
2023-04-09T16:07:52.528Z,51.88
2023-04-09T16:10:20.742Z,52.19
2023-04-09T16:12:48.826Z,53.25
2023-04-09T16:15:17.143Z,52.25
2023-04-09T16:17:45.217Z,52.24
2023-04-09T16:20:13.597Z,52.83
2023-04-09T16:22:41.614Z,52.70
2023-04-09T16:25:11.608Z,52.59
2023-04-09T16:27:39.682Z,53.46
2023-04-09T16:30:08.974Z,53.30
2023-04-09T16:32:37.002Z,53.42
2023-04-09T16:35:05.382Z,53.89
2023-04-09T16:37:35.105Z,54.19
2023-04-09T16:40:04.688Z,54.37
2023-04-09T16:42:34.723Z,54.70
2023-04-09T16:45:04.499Z,54.48
2023-04-09T16:47:32.798Z,55.88
2023-04-09T16:50:00.942Z,55.82
2023-04-09T16:52:37.453Z,55.88
2023-04-09T16:55:15.957Z,55.99
2023-04-09T16:57:47.347Z,56.09
2023-04-09T17:00:17.499Z,58.62
2023-04-09T17:02:46.435Z,60.10
2023-04-09T17:05:14.658Z,61.28
2023-04-09T17:07:43.402Z,61.29
2023-04-09T17:10:12.212Z,62.00
2023-04-09T17:12:40.242Z,62.25
2023-04-09T17:15:11.610Z,62.25
2023-04-09T17:17:39.807Z,62.71
2023-04-09T17:20:09.141Z,63.28
2023-04-09T17:22:38.190Z,63.61
2023-04-09T17:25:06.861Z,63.53
2023-04-09T17:27:34.944Z,64.46
2023-04-09T17:30:04.352Z,64.67
2023-04-09T17:32:33.887Z,64.64
2023-04-09T17:35:03.686Z,64.77
2023-04-09T17:37:32.413Z,64.89
2023-04-09T17:40:00.478Z,65.03
2023-04-09T17:42:29.535Z,65.27
2023-04-09T17:44:57.820Z,65.20
2023-04-09T17:47:26.057Z,65.71
2023-04-09T17:49:55.473Z,66.15
2023-04-09T17:52:23.571Z,66.70
2023-04-09T17:54:52.284Z,67.26
2023-04-09T17:57:20.356Z,67.14
2023-04-09T17:59:48.992Z,67.06
2023-04-09T18:02:17.431Z,67.38
2023-04-09T18:04:45.872Z,67.09
2023-04-09T18:07:15.524Z,67.09
2023-04-09T18:09:43.638Z,67.71
2023-04-09T18:12:11.851Z,68.81
2023-04-09T18:14:39.917Z,69.08
2023-04-09T18:17:08.453Z,69.01
2023-04-09T18:19:36.442Z,69.41
2023-04-09T18:22:04.577Z,70.65
2023-04-09T18:24:34.518Z,72.13
2023-04-09T18:27:03.459Z,72.07
2023-04-09T18:29:32.512Z,72.69
2023-04-09T18:32:00.989Z,72.69
2023-04-09T18:34:29.160Z,72.80
2023-04-09T18:36:57.131Z,72.97
2023-04-09T18:39:25.953Z,72.90
2023-04-09T18:41:55.410Z,72.74
2023-04-09T18:44:23.406Z,72.21
2023-04-09T18:46:52.277Z,72.22
2023-04-09T18:49:20.533Z,72.32
2023-04-09T18:51:48.516Z,71.98
2023-04-09T18:54:16.717Z,72.18
2023-04-09T18:56:46.548Z,71.57
2023-04-09T18:59:16.430Z,71.49
2023-04-09T19:01:44.626Z,71.24
2023-04-09T19:04:12.799Z,71.35
2023-04-09T19:06:41.086Z,71.61
2023-04-09T19:09:10.038Z,73.27
2023-04-09T19:11:38.022Z,73.69
2023-04-09T19:14:06.092Z,73.42
2023-04-09T19:16:35.624Z,73.34
2023-04-09T19:19:03.769Z,73.10
2023-04-09T19:21:31.896Z,73.36
2023-04-09T19:24:00.486Z,73.23
2023-04-09T19:26:28.471Z,73.70
2023-04-09T19:28:56.625Z,72.61
2023-04-09T19:31:24.755Z,72.53
2023-04-09T19:33:54.156Z,72.40
2023-04-09T19:36:22.661Z,72.69
2023-04-09T19:38:52.226Z,71.84
2023-04-09T19:41:20.525Z,72.50
2023-04-09T19:43:48.528Z,72.24
2023-04-09T19:46:16.556Z,72.34
2023-04-09T19:48:44.892Z,72.52
2023-04-09T19:51:18.680Z,71.59
2023-04-09T19:53:47.437Z,71.60
2023-04-09T19:56:15.735Z,71.30
2023-04-09T19:58:44.916Z,69.19
2023-04-09T20:01:13.206Z,70.35
2023-04-09T20:03:41.618Z,69.73
2023-04-09T20:06:11.087Z,69.38
2023-04-09T20:08:41.041Z,69.61
2023-04-09T20:11:09.256Z,69.56
2023-04-09T20:13:37.247Z,69.25
2023-04-09T20:16:05.799Z,69.29
2023-04-09T20:18:33.828Z,69.08
2023-04-09T20:21:01.929Z,69.33
2023-04-09T20:23:30.279Z,69.29
2023-04-09T20:25:59.808Z,69.78
2023-04-09T20:28:27.860Z,70.13
2023-04-09T20:30:55.857Z,69.54
2023-04-09T20:33:23.873Z,69.97
2023-04-09T20:35:53.204Z,70.91
2023-04-09T20:38:22.413Z,70.42
2023-04-09T20:40:52.425Z,74.54
2023-04-09T20:43:21.794Z,76.18
2023-04-09T20:45:49.922Z,79.35
2023-04-09T20:48:18.997Z,79.71
2023-04-09T20:50:47.037Z,79.80
2023-04-09T20:53:15.337Z,80.51
2023-04-09T20:55:43.413Z,79.53
2023-04-09T20:58:11.684Z,79.41
2023-04-09T21:00:41.100Z,77.90
2023-04-09T21:03:09.809Z,76.78
2023-04-09T21:05:37.959Z,75.85
2023-04-09T21:08:07.156Z,76.14
2023-04-09T21:10:35.402Z,76.96
2023-04-09T21:13:03.468Z,77.41
2023-04-09T21:15:31.601Z,77.92
2023-04-09T21:18:00.992Z,78.21
2023-04-09T21:20:29.105Z,78.04
2023-04-09T21:22:57.186Z,78.92
2023-04-09T21:25:28.390Z,79.28
2023-04-09T21:27:56.666Z,79.20
2023-04-09T21:30:24.807Z,79.96
2023-04-09T21:32:54.563Z,80.13
2023-04-09T21:35:24.132Z,80.49
2023-04-09T21:37:52.616Z,80.85
2023-04-09T21:40:20.727Z,81.17
2023-04-09T21:42:48.777Z,80.76
2023-04-09T21:45:17.615Z,81.29
2023-04-09T21:47:46.059Z,82.76
2023-04-09T21:50:14.744Z,82.94
2023-04-09T21:52:46.158Z,82.87
2023-04-09T21:55:14.244Z,82.19
2023-04-09T21:57:42.255Z,83.51
2023-04-09T22:00:11.377Z,83.69
2023-04-09T22:02:40.276Z,84.46
2023-04-09T22:05:09.121Z,83.96
2023-04-09T22:07:37.385Z,83.60
2023-04-09T22:10:08.256Z,82.82
2023-04-09T22:12:37.430Z,83.56
2023-04-09T22:15:06.584Z,84.46
2023-04-09T22:17:34.732Z,84.81
2023-04-09T22:20:03.212Z,84.57
2023-04-09T22:22:31.288Z,84.29
2023-04-09T22:24:59.359Z,84.78
2023-04-09T22:27:29.081Z,84.35
2023-04-09T22:29:57.253Z,85.23
2023-04-09T22:32:25.444Z,84.59
2023-04-09T22:34:53.640Z,84.61
2023-04-09T22:37:21.749Z,85.16
2023-04-09T22:39:49.772Z,86.38
2023-04-09T22:42:17.801Z,85.91
2023-04-09T22:44:47.132Z,86.53
2023-04-09T22:47:15.252Z,87.34
2023-04-09T22:49:43.842Z,87.60
2023-04-09T22:52:12.193Z,88.44
2023-04-09T22:54:43.207Z,88.17
2023-04-09T22:57:11.364Z,88.62
2023-04-09T22:59:40.884Z,88.84
2023-04-09T23:02:10.559Z,87.80
2023-04-09T23:04:38.754Z,87.41
2023-04-09T23:07:06.842Z,87.60
2023-04-09T23:09:34.846Z,87.83
2023-04-09T23:12:03.349Z,89.10
2023-04-09T23:14:31.487Z,90.45
2023-04-09T23:16:59.583Z,91.82
2023-04-09T23:19:28.948Z,92.06
2023-04-09T23:21:56.974Z,93.34
2023-04-09T23:24:25.097Z,91.19
2023-04-09T23:26:53.166Z,91.83
2023-04-09T23:29:21.348Z,92.19
2023-04-09T23:31:49.572Z,91.10
2023-04-09T23:34:17.849Z,89.36
2023-04-09T23:36:47.256Z,89.81
2023-04-09T23:39:15.336Z,90.92
2023-04-09T23:41:43.461Z,90.08
2023-04-09T23:44:11.445Z,89.91
2023-04-09T23:46:39.482Z,88.15
2023-04-09T23:49:07.597Z,87.75
2023-04-09T23:51:35.705Z,87.50
2023-04-09T23:54:05.230Z,87.13
2023-04-09T23:56:33.320Z,88.07
2023-04-09T23:59:01.326Z,87.78
